Weather at Rutherford County Marchman Field

Public forecast

Using degrees Fahrenheit for public forecast. Weather courtesy of forecast.io.

Current aviation weather report (METAR) for Rutherford County Marchman Field

2024/06/13 20:25 (retrieved 25 minutes ago)

KFQD 132025Z AUTO 18006KT 10SM CLR 30/15 A3002 RMK AO2

Closest aviation forecast (TAF) to Rutherford County Marchman Field

Closest forecast is Asheville Regional Airport, 29.7 nm (55.0 km) W.

2024/06/13 18:39 (retrieved 2 hours ago)

TAF KAVL 131736Z 1318/1418 16005KT P6SM SCT040 FM140300 00000KT P6SM SCT110 FM141600 34006KT P6SM FEW035